sensor_id;sensor_type;location;lat;lon;timestamp;temperature;humidity
7014;DHT22;3547;50.774;12.918;2023-02-01T00:00:21;3.40;4.80
7014;DHT22;3547;50.774;12.918;2023-02-01T00:02:47;3.40;8.30
7014;DHT22;3547;50.774;12.918;2023-02-01T00:05:13;3.40;3.50
7014;DHT22;3547;50.774;12.918;2023-02-01T00:07:39;3.40;1.60
7014;DHT22;3547;50.774;12.918;2023-02-01T00:10:07;3.40;1.80
7014;DHT22;3547;50.774;12.918;2023-02-01T00:12:33;3.40;1.00
7014;DHT22;3547;50.774;12.918;2023-02-01T00:14:59;3.40;1.90
7014;DHT22;3547;50.774;12.918;2023-02-01T00:17:26;3.50;2.00
7014;DHT22;3547;50.774;12.918;2023-02-01T00:19:52;3.40;1.00
7014;DHT22;3547;50.774;12.918;2023-02-01T00:22:18;3.50;1.00
7014;DHT22;3547;50.774;12.918;2023-02-01T00:24:44;3.50;1.00
7014;DHT22;3547;50.774;12.918;2023-02-01T00:27:10;3.50;1.00
7014;DHT22;3547;50.774;12.918;2023-02-01T00:29:36;3.50;1.00
7014;DHT22;3547;50.774;12.918;2023-02-01T00:32:02;3.50;1.00
7014;DHT22;3547;50.774;12.918;2023-02-01T00:34:41;3.50;1.00
7014;DHT22;3547;50.774;12.918;2023-02-01T00:37:07;3.50;1.00
7014;DHT22;3547;50.774;12.918;2023-02-01T00:39:33;3.50;1.00
7014;DHT22;3547;50.774;12.918;2023-02-01T00:42:00;3.50;1.00
7014;DHT22;3547;50.774;12.918;2023-02-01T00:44:27;3.50;1.00
7014;DHT22;3547;50.774;12.918;2023-02-01T00:46:53;3.60;1.00
7014;DHT22;3547;50.774;12.918;2023-02-01T00:49:19;3.50;1.00
7014;DHT22;3547;50.774;12.918;2023-02-01T00:51:45;3.50;1.00
7014;DHT22;3547;50.774;12.918;2023-02-01T00:54:12;3.50;1.00
7014;DHT22;3547;50.774;12.918;2023-02-01T00:56:38;3.50;1.00
7014;DHT22;3547;50.774;12.918;2023-02-01T00:59:04;3.50;1.00
7014;DHT22;3547;50.774;12.918;2023-02-01T01:01:30;3.50;1.00
7014;DHT22;3547;50.774;12.918;2023-02-01T01:03:58;3.50;1.00
7014;DHT22;3547;50.774;12.918;2023-02-01T01:06:30;3.50;1.00
7014;DHT22;3547;50.774;12.918;2023-02-01T01:08:59;3.50;1.00
7014;DHT22;3547;50.774;12.918;2023-02-01T01:11:28;3.50;1.00
7014;DHT22;3547;50.774;12.918;2023-02-01T01:13:56;3.50;1.00
7014;DHT22;3547;50.774;12.918;2023-02-01T01:16:24;3.50;1.00
7014;DHT22;3547;50.774;12.918;2023-02-01T01:18:50;3.50;1.00
7014;DHT22;3547;50.774;12.918;2023-02-01T01:21:17;3.50;1.00
7014;DHT22;3547;50.774;12.918;2023-02-01T01:23:44;3.40;1.00
7014;DHT22;3547;50.774;12.918;2023-02-01T01:26:23;3.50;1.00
7014;DHT22;3547;50.774;12.918;2023-02-01T01:28:50;3.50;1.00
7014;DHT22;3547;50.774;12.918;2023-02-01T01:31:18;3.40;1.00
7014;DHT22;3547;50.774;12.918;2023-02-01T01:33:46;3.40;1.00
7014;DHT22;3547;50.774;12.918;2023-02-01T01:36:13;3.40;1.00
7014;DHT22;3547;50.774;12.918;2023-02-01T01:38:40;3.50;1.00
7014;DHT22;3547;50.774;12.918;2023-02-01T01:41:08;3.50;1.00
7014;DHT22;3547;50.774;12.918;2023-02-01T01:49:04;3.50;1.00
7014;DHT22;3547;50.774;12.918;2023-02-01T01:51:35;3.40;1.00
7014;DHT22;3547;50.774;12.918;2023-02-01T01:56:39;3.40;1.00
7014;DHT22;3547;50.774;12.918;2023-02-01T01:59:06;3.40;1.00
7014;DHT22;3547;50.774;12.918;2023-02-01T02:01:33;3.40;1.00
7014;DHT22;3547;50.774;12.918;2023-02-01T02:04:00;3.40;1.00
7014;DHT22;3547;50.774;12.918;2023-02-01T02:06:50;3.40;1.00
7014;DHT22;3547;50.774;12.918;2023-02-01T02:09:17;3.40;1.00
7014;DHT22;3547;50.774;12.918;2023-02-01T02:11:43;3.40;1.00
7014;DHT22;3547;50.774;12.918;2023-02-01T02:14:11;3.30;1.00
7014;DHT22;3547;50.774;12.918;2023-02-01T02:16:49;3.30;1.00
7014;DHT22;3547;50.774;12.918;2023-02-01T02:43:09;3.40;1.00
7014;DHT22;3547;50.774;12.918;2023-02-01T02:46:06;3.40;1.00
7014;DHT22;3547;50.774;12.918;2023-02-01T02:49:07;3.30;1.00
7014;DHT22;3547;50.774;12.918;2023-02-01T02:51:56;3.30;1.00
7014;DHT22;3547;50.774;12.918;2023-02-01T02:54:46;3.40;1.00
7014;DHT22;3547;50.774;12.918;2023-02-01T02:57:17;3.40;1.00
7014;DHT22;3547;50.774;12.918;2023-02-01T03:00:07;3.30;1.00
7014;DHT22;3547;50.774;12.918;2023-02-01T03:02:53;3.30;1.00
7014;DHT22;3547;50.774;12.918;2023-02-01T03:05:45;3.30;1.00
7014;DHT22;3547;50.774;12.918;2023-02-01T03:08:18;3.30;1.00
7014;DHT22;3547;50.774;12.918;2023-02-01T03:11:02;3.30;1.00
7014;DHT22;3547;50.774;12.918;2023-02-01T03:18:44;3.20;1.00
7014;DHT22;3547;50.774;12.918;2023-02-01T03:21:18;3.20;1.00
7014;DHT22;3547;50.774;12.918;2023-02-01T03:23:47;3.20;1.00
7014;DHT22;3547;50.774;12.918;2023-02-01T03:26:17;3.20;1.00
7014;DHT22;3547;50.774;12.918;2023-02-01T03:28:52;3.10;1.00
7014;DHT22;3547;50.774;12.918;2023-02-01T03:31:20;3.20;1.00
7014;DHT22;3547;50.774;12.918;2023-02-01T03:33:47;3.20;1.00
7014;DHT22;3547;50.774;12.918;2023-02-01T03:38:48;3.20;1.00
7014;DHT22;3547;50.774;12.918;2023-02-01T03:44:16;3.10;1.00
7014;DHT22;3547;50.774;12.918;2023-02-01T03:47:06;3.10;1.00
7014;DHT22;3547;50.774;12.918;2023-02-01T03:52:01;3.10;1.00
7014;DHT22;3547;50.774;12.918;2023-02-01T03:54:30;3.10;1.00
7014;DHT22;3547;50.774;12.918;2023-02-01T03:57:00;3.00;1.00
7014;DHT22;3547;50.774;12.918;2023-02-01T03:59:27;3.10;1.00
7014;DHT22;3547;50.774;12.918;2023-02-01T04:01:53;3.10;1.00
7014;DHT22;3547;50.774;12.918;2023-02-01T04:04:20;3.00;1.00
7014;DHT22;3547;50.774;12.918;2023-02-01T04:06:49;3.00;1.00
7014;DHT22;3547;50.774;12.918;2023-02-01T04:09:16;3.00;1.00
7014;DHT22;3547;50.774;12.918;2023-02-01T04:11:43;3.00;1.00
7014;DHT22;3547;50.774;12.918;2023-02-01T04:14:09;3.00;1.00
7014;DHT22;3547;50.774;12.918;2023-02-01T04:16:35;3.00;1.00
7014;DHT22;3547;50.774;12.918;2023-02-01T04:19:02;3.00;1.00
7014;DHT22;3547;50.774;12.918;2023-02-01T04:21:28;3.00;1.00
7014;DHT22;3547;50.774;12.918;2023-02-01T04:23:54;3.00;1.00
7014;DHT22;3547;50.774;12.918;2023-02-01T04:26:21;3.00;1.00
7014;DHT22;3547;50.774;12.918;2023-02-01T04:28:47;2.90;1.00
7014;DHT22;3547;50.774;12.918;2023-02-01T04:31:17;2.90;1.00
7014;DHT22;3547;50.774;12.918;2023-02-01T04:33:55;2.90;1.00
7014;DHT22;3547;50.774;12.918;2023-02-01T04:36:23;2.90;1.00
7014;DHT22;3547;50.774;12.918;2023-02-01T04:38:50;2.90;1.00
7014;DHT22;3547;50.774;12.918;2023-02-01T04:41:16;2.90;1.00
7014;DHT22;3547;50.774;12.918;2023-02-01T04:43:49;2.90;1.00
7014;DHT22;3547;50.774;12.918;2023-02-01T04:46:16;2.90;1.00
7014;DHT22;3547;50.774;12.918;2023-02-01T04:48:42;2.90;1.00
7014;DHT22;3547;50.774;12.918;2023-02-01T04:51:09;3.00;1.00
7014;DHT22;3547;50.774;12.918;2023-02-01T04:53:36;3.00;1.00
7014;DHT22;3547;50.774;12.918;2023-02-01T04:56:02;3.00;1.00
7014;DHT22;3547;50.774;12.918;2023-02-01T04:58:28;3.00;1.00
7014;DHT22;3547;50.774;12.918;2023-02-01T05:00:54;3.00;1.00
7014;DHT22;3547;50.774;12.918;2023-02-01T05:03:20;3.00;1.00
7014;DHT22;3547;50.774;12.918;2023-02-01T05:05:48;3.00;1.00
7014;DHT22;3547;50.774;12.918;2023-02-01T05:08:15;3.10;1.00
7014;DHT22;3547;50.774;12.918;2023-02-01T05:10:41;3.00;1.00
7014;DHT22;3547;50.774;12.918;2023-02-01T05:13:08;3.10;1.00
7014;DHT22;3547;50.774;12.918;2023-02-01T05:15:53;3.10;1.00
7014;DHT22;3547;50.774;12.918;2023-02-01T05:18:20;3.10;1.00
7014;DHT22;3547;50.774;12.918;2023-02-01T05:20:46;3.00;1.00
7014;DHT22;3547;50.774;12.918;2023-02-01T05:23:12;3.00;1.00
7014;DHT22;3547;50.774;12.918;2023-02-01T05:25:38;3.00;1.00
7014;DHT22;3547;50.774;12.918;2023-02-01T05:28:04;2.90;1.00
7014;DHT22;3547;50.774;12.918;2023-02-01T05:30:30;2.90;1.00
7014;DHT22;3547;50.774;12.918;2023-02-01T05:32:58;2.90;1.00
7014;DHT22;3547;50.774;12.918;2023-02-01T05:35:24;2.90;1.00
7014;DHT22;3547;50.774;12.918;2023-02-01T05:37:50;2.90;1.00
7014;DHT22;3547;50.774;12.918;2023-02-01T05:40:16;2.90;1.00
7014;DHT22;3547;50.774;12.918;2023-02-01T05:42:42;2.80;1.00
7014;DHT22;3547;50.774;12.918;2023-02-01T05:45:09;2.80;1.00
7014;DHT22;3547;50.774;12.918;2023-02-01T05:47:35;2.90;1.00
7014;DHT22;3547;50.774;12.918;2023-02-01T05:50:02;2.90;1.00
7014;DHT22;3547;50.774;12.918;2023-02-01T05:52:28;2.90;1.00
7014;DHT22;3547;50.774;12.918;2023-02-01T05:54:54;2.90;1.00
7014;DHT22;3547;50.774;12.918;2023-02-01T05:57:21;2.90;1.00
7014;DHT22;3547;50.774;12.918;2023-02-01T05:59:47;2.90;1.00
7014;DHT22;3547;50.774;12.918;2023-02-01T06:02:15;2.90;1.00
7014;DHT22;3547;50.774;12.918;2023-02-01T06:04:41;2.90;1.00
7014;DHT22;3547;50.774;12.918;2023-02-01T06:07:08;2.80;1.00
7014;DHT22;3547;50.774;12.918;2023-02-01T06:09:36;2.70;1.00
7014;DHT22;3547;50.774;12.918;2023-02-01T06:12:04;2.70;1.00
7014;DHT22;3547;50.774;12.918;2023-02-01T06:14:30;2.70;1.00
7014;DHT22;3547;50.774;12.918;2023-02-01T06:16:58;2.80;1.00
7014;DHT22;3547;50.774;12.918;2023-02-01T06:19:25;2.80;1.00
7014;DHT22;3547;50.774;12.918;2023-02-01T06:21:51;2.80;1.00
7014;DHT22;3547;50.774;12.918;2023-02-01T06:24:17;2.70;1.00
7014;DHT22;3547;50.774;12.918;2023-02-01T06:26:43;2.70;1.00
7014;DHT22;3547;50.774;12.918;2023-02-01T06:29:10;2.70;1.00
7014;DHT22;3547;50.774;12.918;2023-02-01T06:31:36;2.70;1.00
7014;DHT22;3547;50.774;12.918;2023-02-01T06:34:02;2.70;1.00
7014;DHT22;3547;50.774;12.918;2023-02-01T06:36:29;2.70;1.00
7014;DHT22;3547;50.774;12.918;2023-02-01T06:38:58;2.70;1.00
7014;DHT22;3547;50.774;12.918;2023-02-01T06:41:25;2.70;1.00
7014;DHT22;3547;50.774;12.918;2023-02-01T06:43:52;2.70;1.00
7014;DHT22;3547;50.774;12.918;2023-02-01T06:46:18;2.70;1.00
7014;DHT22;3547;50.774;12.918;2023-02-01T06:48:44;2.70;1.00
7014;DHT22;3547;50.774;12.918;2023-02-01T06:51:23;2.70;1.00
7014;DHT22;3547;50.774;12.918;2023-02-01T06:53:49;2.80;1.00
7014;DHT22;3547;50.774;12.918;2023-02-01T06:56:15;2.80;1.00
7014;DHT22;3547;50.774;12.918;2023-02-01T06:58:42;2.80;1.00
7014;DHT22;3547;50.774;12.918;2023-02-01T07:01:09;2.80;1.00
7014;DHT22;3547;50.774;12.918;2023-02-01T07:03:36;2.80;1.00
7014;DHT22;3547;50.774;12.918;2023-02-01T07:06:03;2.80;1.00
7014;DHT22;3547;50.774;12.918;2023-02-01T07:08:32;2.80;1.00
7014;DHT22;3547;50.774;12.918;2023-02-01T07:11:06;2.80;1.00
7014;DHT22;3547;50.774;12.918;2023-02-01T07:13:34;2.80;1.00
7014;DHT22;3547;50.774;12.918;2023-02-01T07:16:02;2.80;1.00
7014;DHT22;3547;50.774;12.918;2023-02-01T07:18:29;2.80;1.00
7014;DHT22;3547;50.774;12.918;2023-02-01T07:20:56;2.80;1.00
7014;DHT22;3547;50.774;12.918;2023-02-01T07:23:22;2.90;1.00
7014;DHT22;3547;50.774;12.918;2023-02-01T07:25:56;2.80;1.00
7014;DHT22;3547;50.774;12.918;2023-02-01T07:28:23;2.90;1.00
7014;DHT22;3547;50.774;12.918;2023-02-01T07:30:49;2.90;1.00
7014;DHT22;3547;50.774;12.918;2023-02-01T07:33:21;2.90;1.00
7014;DHT22;3547;50.774;12.918;2023-02-01T07:35:48;2.90;1.00
7014;DHT22;3547;50.774;12.918;2023-02-01T07:38:15;2.90;1.00
7014;DHT22;3547;50.774;12.918;2023-02-01T07:40:41;2.90;1.00
7014;DHT22;3547;50.774;12.918;2023-02-01T07:43:07;2.90;1.00
7014;DHT22;3547;50.774;12.918;2023-02-01T07:45:34;2.90;1.00
7014;DHT22;3547;50.774;12.918;2023-02-01T07:48:01;2.90;1.00
7014;DHT22;3547;50.774;12.918;2023-02-01T07:50:28;3.00;1.00
7014;DHT22;3547;50.774;12.918;2023-02-01T07:52:54;3.00;1.00
7014;DHT22;3547;50.774;12.918;2023-02-01T07:55:21;3.00;1.00
7014;DHT22;3547;50.774;12.918;2023-02-01T07:57:47;3.00;1.00
7014;DHT22;3547;50.774;12.918;2023-02-01T08:00:14;3.00;1.00
7014;DHT22;3547;50.774;12.918;2023-02-01T08:02:59;3.00;1.00
7014;DHT22;3547;50.774;12.918;2023-02-01T08:05:25;3.10;1.00
7014;DHT22;3547;50.774;12.918;2023-02-01T08:07:51;3.10;1.00
7014;DHT22;3547;50.774;12.918;2023-02-01T08:10:18;3.10;1.00
7014;DHT22;3547;50.774;12.918;2023-02-01T08:12:44;3.10;1.00
7014;DHT22;3547;50.774;12.918;2023-02-01T08:15:15;3.10;1.00
7014;DHT22;3547;50.774;12.918;2023-02-01T08:17:51;3.10;1.00
7014;DHT22;3547;50.774;12.918;2023-02-01T08:20:18;3.20;1.00
7014;DHT22;3547;50.774;12.918;2023-02-01T08:22:44;3.20;1.00
7014;DHT22;3547;50.774;12.918;2023-02-01T08:25:11;3.20;1.00
7014;DHT22;3547;50.774;12.918;2023-02-01T08:27:37;3.20;1.00
7014;DHT22;3547;50.774;12.918;2023-02-01T08:30:04;3.30;1.00
7014;DHT22;3547;50.774;12.918;2023-02-01T08:32:34;3.30;1.00
7014;DHT22;3547;50.774;12.918;2023-02-01T08:35:00;3.40;1.00
7014;DHT22;3547;50.774;12.918;2023-02-01T08:37:26;3.40;1.00
7014;DHT22;3547;50.774;12.918;2023-02-01T08:39:52;3.40;1.00
7014;DHT22;3547;50.774;12.918;2023-02-01T08:42:18;3.40;1.00
7014;DHT22;3547;50.774;12.918;2023-02-01T08:45:03;3.40;1.00
7014;DHT22;3547;50.774;12.918;2023-02-01T08:47:30;3.40;1.00
7014;DHT22;3547;50.774;12.918;2023-02-01T08:49:57;3.50;1.00
7014;DHT22;3547;50.774;12.918;2023-02-01T08:52:23;3.50;1.00
7014;DHT22;3547;50.774;12.918;2023-02-01T08:54:49;3.50;1.00
7014;DHT22;3547;50.774;12.918;2023-02-01T08:57:15;3.50;1.00
7014;DHT22;3547;50.774;12.918;2023-02-01T08:59:41;3.40;1.00
7014;DHT22;3547;50.774;12.918;2023-02-01T09:02:19;3.40;1.00
7014;DHT22;3547;50.774;12.918;2023-02-01T09:04:45;3.40;1.00
7014;DHT22;3547;50.774;12.918;2023-02-01T09:07:11;3.30;1.00
7014;DHT22;3547;50.774;12.918;2023-02-01T09:09:39;3.30;1.00
7014;DHT22;3547;50.774;12.918;2023-02-01T09:12:05;3.30;1.00
7014;DHT22;3547;50.774;12.918;2023-02-01T09:14:32;3.00;1.00
7014;DHT22;3547;50.774;12.918;2023-02-01T09:16:58;2.90;1.00
7014;DHT22;3547;50.774;12.918;2023-02-01T09:19:24;2.70;1.00
7014;DHT22;3547;50.774;12.918;2023-02-01T09:21:50;2.60;1.00
7014;DHT22;3547;50.774;12.918;2023-02-01T09:24:16;2.50;14.00
7014;DHT22;3547;50.774;12.918;2023-02-01T09:26:43;2.50;27.70
7014;DHT22;3547;50.774;12.918;2023-02-01T09:29:09;2.60;32.80
7014;DHT22;3547;50.774;12.918;2023-02-01T09:31:39;2.60;26.10
7014;DHT22;3547;50.774;12.918;2023-02-01T09:34:07;2.60;16.40
7014;DHT22;3547;50.774;12.918;2023-02-01T09:36:33;2.60;18.70
7014;DHT22;3547;50.774;12.918;2023-02-01T09:39:00;2.60;18.40
7014;DHT22;3547;50.774;12.918;2023-02-01T09:46:58;2.70;9.60
7014;DHT22;3547;50.774;12.918;2023-02-01T09:49:37;2.70;20.80
7014;DHT22;3547;50.774;12.918;2023-02-01T09:52:10;2.80;16.90
7014;DHT22;3547;50.774;12.918;2023-02-01T09:54:47;2.80;30.50
7014;DHT22;3547;50.774;12.918;2023-02-01T09:57:26;2.80;8.00
7014;DHT22;3547;50.774;12.918;2023-02-01T10:00:11;2.90;6.70
7014;DHT22;3547;50.774;12.918;2023-02-01T10:02:42;3.00;1.00
7014;DHT22;3547;50.774;12.918;2023-02-01T10:05:18;3.10;1.00
7014;DHT22;3547;50.774;12.918;2023-02-01T10:10:45;3.20;1.00
7014;DHT22;3547;50.774;12.918;2023-02-01T10:13:22;3.20;1.00
7014;DHT22;3547;50.774;12.918;2023-02-01T10:21:23;3.10;1.00
7014;DHT22;3547;50.774;12.918;2023-02-01T10:24:17;3.20;1.00
7014;DHT22;3547;50.774;12.918;2023-02-01T10:27:12;3.20;1.00
7014;DHT22;3547;50.774;12.918;2023-02-01T10:29:41;3.30;1.00
7014;DHT22;3547;50.774;12.918;2023-02-01T10:32:23;3.30;1.00
7014;DHT22;3547;50.774;12.918;2023-02-01T10:35:12;3.30;1.00
7014;DHT22;3547;50.774;12.918;2023-02-01T10:38:01;3.40;1.00
7014;DHT22;3547;50.774;12.918;2023-02-01T10:40:33;3.50;1.00
7014;DHT22;3547;50.774;12.918;2023-02-01T10:43:01;3.50;1.00
7014;DHT22;3547;50.774;12.918;2023-02-01T10:45:29;3.50;1.00
7014;DHT22;3547;50.774;12.918;2023-02-01T10:47:58;3.60;1.00
7014;DHT22;3547;50.774;12.918;2023-02-01T10:50:38;3.60;1.00
7014;DHT22;3547;50.774;12.918;2023-02-01T10:53:24;3.70;1.00
7014;DHT22;3547;50.774;12.918;2023-02-01T10:55:54;3.70;1.00
7014;DHT22;3547;50.774;12.918;2023-02-01T10:58:27;3.70;1.00
7014;DHT22;3547;50.774;12.918;2023-02-01T11:00:58;3.80;1.00
7014;DHT22;3547;50.774;12.918;2023-02-01T11:05:57;3.90;1.00
7014;DHT22;3547;50.774;12.918;2023-02-01T11:08:23;4.00;1.00
7014;DHT22;3547;50.774;12.918;2023-02-01T11:10:58;4.10;1.00
7014;DHT22;3547;50.774;12.918;2023-02-01T11:13:29;4.20;1.00
7014;DHT22;3547;50.774;12.918;2023-02-01T11:15:57;4.30;1.00
7014;DHT22;3547;50.774;12.918;2023-02-01T11:18:28;4.30;1.00
7014;DHT22;3547;50.774;12.918;2023-02-01T11:20:56;4.30;1.00
7014;DHT22;3547;50.774;12.918;2023-02-01T11:23:24;4.40;1.00
7014;DHT22;3547;50.774;12.918;2023-02-01T11:26:00;4.50;1.00
7014;DHT22;3547;50.774;12.918;2023-02-01T11:28:31;4.50;1.00
7014;DHT22;3547;50.774;12.918;2023-02-01T11:31:04;4.50;1.00
7014;DHT22;3547;50.774;12.918;2023-02-01T11:33:33;4.60;1.00
7014;DHT22;3547;50.774;12.918;2023-02-01T11:36:10;4.60;1.00
7014;DHT22;3547;50.774;12.918;2023-02-01T11:38:38;4.60;1.00
7014;DHT22;3547;50.774;12.918;2023-02-01T11:41:13;4.60;1.00
7014;DHT22;3547;50.774;12.918;2023-02-01T11:43:54;4.50;1.00
7014;DHT22;3547;50.774;12.918;2023-02-01T11:46:24;4.50;1.00
7014;DHT22;3547;50.774;12.918;2023-02-01T11:48:56;4.50;1.00
7014;DHT22;3547;50.774;12.918;2023-02-01T11:51:38;4.50;1.00
7014;DHT22;3547;50.774;12.918;2023-02-01T12:01:01;4.60;1.00
7014;DHT22;3547;50.774;12.918;2023-02-01T12:06:15;4.80;1.00
7014;DHT22;3547;50.774;12.918;2023-02-01T12:11:45;4.80;1.00
7014;DHT22;3547;50.774;12.918;2023-02-01T12:19:51;4.80;1.00
7014;DHT22;3547;50.774;12.918;2023-02-01T12:22:43;4.70;1.00
7014;DHT22;3547;50.774;12.918;2023-02-01T12:31:38;4.70;1.00
7014;DHT22;3547;50.774;12.918;2023-02-01T12:39:42;4.80;1.00
7014;DHT22;3547;50.774;12.918;2023-02-01T12:42:24;4.80;1.00
7014;DHT22;3547;50.774;12.918;2023-02-01T12:47:57;4.80;1.00
7014;DHT22;3547;50.774;12.918;2023-02-01T12:51:02;4.80;1.00
7014;DHT22;3547;50.774;12.918;2023-02-01T12:53:55;4.80;1.00
7014;DHT22;3547;50.774;12.918;2023-02-01T12:56:45;4.80;1.00
7014;DHT22;3547;50.774;12.918;2023-02-01T12:59:32;4.80;1.00
7014;DHT22;3547;50.774;12.918;2023-02-01T13:04:59;4.80;1.00
7014;DHT22;3547;50.774;12.918;2023-02-01T13:07:38;4.80;1.00
7014;DHT22;3547;50.774;12.918;2023-02-01T13:12:47;4.80;1.00
7014;DHT22;3547;50.774;12.918;2023-02-01T13:15:37;4.90;1.00
7014;DHT22;3547;50.774;12.918;2023-02-01T13:18:05;4.90;1.00
7014;DHT22;3547;50.774;12.918;2023-02-01T13:20:45;4.80;1.00
7014;DHT22;3547;50.774;12.918;2023-02-01T13:25:51;4.80;1.00
7014;DHT22;3547;50.774;12.918;2023-02-01T13:28:32;4.80;1.00
7014;DHT22;3547;50.774;12.918;2023-02-01T13:47:29;4.70;1.00
7014;DHT22;3547;50.774;12.918;2023-02-01T13:49:59;4.70;1.00
7014;DHT22;3547;50.774;12.918;2023-02-01T13:52:38;4.70;1.00
7014;DHT22;3547;50.774;12.918;2023-02-01T13:57:42;4.60;1.00
7014;DHT22;3547;50.774;12.918;2023-02-01T14:00:30;4.60;1.00
7014;DHT22;3547;50.774;12.918;2023-02-01T14:03:02;4.60;1.00
7014;DHT22;3547;50.774;12.918;2023-02-01T14:10:59;4.60;1.00
7014;DHT22;3547;50.774;12.918;2023-02-01T14:13:35;4.60;1.00
7014;DHT22;3547;50.774;12.918;2023-02-01T14:21:28;4.60;1.00
7014;DHT22;3547;50.774;12.918;2023-02-01T14:24:20;4.60;1.00
7014;DHT22;3547;50.774;12.918;2023-02-01T14:26:51;4.50;1.00
7014;DHT22;3547;50.774;12.918;2023-02-01T14:34:39;4.50;1.00
7014;DHT22;3547;50.774;12.918;2023-02-01T14:39:58;4.40;1.00
7014;DHT22;3547;50.774;12.918;2023-02-01T14:47:56;4.40;1.00
7014;DHT22;3547;50.774;12.918;2023-02-01T14:50:47;4.40;1.00
7014;DHT22;3547;50.774;12.918;2023-02-01T14:53:19;4.40;1.00
7014;DHT22;3547;50.774;12.918;2023-02-01T14:58:57;4.30;1.00
7014;DHT22;3547;50.774;12.918;2023-02-01T15:01:34;4.30;1.00
7014;DHT22;3547;50.774;12.918;2023-02-01T15:04:12;4.30;1.00
7014;DHT22;3547;50.774;12.918;2023-02-01T15:09:56;4.10;1.00
7014;DHT22;3547;50.774;12.918;2023-02-01T15:12:25;4.20;1.00
7014;DHT22;3547;50.774;12.918;2023-02-01T15:15:17;4.10;1.00
7014;DHT22;3547;50.774;12.918;2023-02-01T15:17:55;4.10;1.00
7014;DHT22;3547;50.774;12.918;2023-02-01T15:20:24;4.10;1.00
7014;DHT22;3547;50.774;12.918;2023-02-01T15:23:05;4.00;1.00
7014;DHT22;3547;50.774;12.918;2023-02-01T15:25:36;4.00;1.00
7014;DHT22;3547;50.774;12.918;2023-02-01T15:28:04;4.00;1.00
7014;DHT22;3547;50.774;12.918;2023-02-01T15:30:34;3.90;1.00
7014;DHT22;3547;50.774;12.918;2023-02-01T15:36:26;3.90;1.00
7014;DHT22;3547;50.774;12.918;2023-02-01T15:38:41;3.80;1.00
7014;DHT22;3547;50.774;12.918;2023-02-01T15:46:30;3.80;1.00
7014;DHT22;3547;50.774;12.918;2023-02-01T15:48:57;3.80;1.00
7014;DHT22;3547;50.774;12.918;2023-02-01T15:51:26;3.80;1.00
7014;DHT22;3547;50.774;12.918;2023-02-01T15:54:05;3.80;1.00
7014;DHT22;3547;50.774;12.918;2023-02-01T15:56:39;3.80;1.00
7014;DHT22;3547;50.774;12.918;2023-02-01T15:59:16;3.70;1.00
7014;DHT22;3547;50.774;12.918;2023-02-01T16:01:43;3.80;1.00
7014;DHT22;3547;50.774;12.918;2023-02-01T16:04:27;3.80;1.00
7014;DHT22;3547;50.774;12.918;2023-02-01T16:07:01;3.80;1.00
7014;DHT22;3547;50.774;12.918;2023-02-01T16:09:39;3.80;1.00
7014;DHT22;3547;50.774;12.918;2023-02-01T16:15:28;3.80;1.00
7014;DHT22;3547;50.774;12.918;2023-02-01T16:17:57;3.80;1.00
7014;DHT22;3547;50.774;12.918;2023-02-01T16:20:24;3.80;1.00
7014;DHT22;3547;50.774;12.918;2023-02-01T16:22:50;3.90;1.00
7014;DHT22;3547;50.774;12.918;2023-02-01T16:25:16;3.90;1.00
7014;DHT22;3547;50.774;12.918;2023-02-01T16:27:42;3.90;1.00
7014;DHT22;3547;50.774;12.918;2023-02-01T16:30:09;3.90;1.00
7014;DHT22;3547;50.774;12.918;2023-02-01T16:32:36;3.90;1.00
7014;DHT22;3547;50.774;12.918;2023-02-01T16:35:16;3.90;1.00
7014;DHT22;3547;50.774;12.918;2023-02-01T16:37:45;3.90;1.00
7014;DHT22;3547;50.774;12.918;2023-02-01T16:40:15;3.90;1.00
7014;DHT22;3547;50.774;12.918;2023-02-01T16:42:42;3.90;1.00
7014;DHT22;3547;50.774;12.918;2023-02-01T16:45:09;3.80;1.00
7014;DHT22;3547;50.774;12.918;2023-02-01T16:47:37;3.80;1.00
7014;DHT22;3547;50.774;12.918;2023-02-01T16:50:04;3.80;1.00
7014;DHT22;3547;50.774;12.918;2023-02-01T16:52:44;3.80;1.00
7014;DHT22;3547;50.774;12.918;2023-02-01T16:55:13;3.80;1.00
7014;DHT22;3547;50.774;12.918;2023-02-01T16:57:39;3.70;1.00
7014;DHT22;3547;50.774;12.918;2023-02-01T17:00:06;3.60;1.00
7014;DHT22;3547;50.774;12.918;2023-02-01T17:02:34;3.50;1.00
7014;DHT22;3547;50.774;12.918;2023-02-01T17:05:00;3.50;1.00
7014;DHT22;3547;50.774;12.918;2023-02-01T17:07:27;3.40;1.00
7014;DHT22;3547;50.774;12.918;2023-02-01T17:09:53;3.30;1.00
7014;DHT22;3547;50.774;12.918;2023-02-01T17:12:24;3.10;1.00
7014;DHT22;3547;50.774;12.918;2023-02-01T17:14:51;1.00;1.00
7014;DHT22;3547;50.774;12.918;2023-02-01T17:17:19;0.60;1.00
7014;DHT22;3547;50.774;12.918;2023-02-01T17:19:48;0.60;34.60
7014;DHT22;3547;50.774;12.918;2023-02-01T17:22:18;0.50;99.90
7014;DHT22;3547;50.774;12.918;2023-02-01T17:24:44;0.50;99.90
7014;DHT22;3547;50.774;12.918;2023-02-01T17:27:11;0.40;99.90
7014;DHT22;3547;50.774;12.918;2023-02-01T17:29:37;0.30;99.90
7014;DHT22;3547;50.774;12.918;2023-02-01T17:32:04;0.40;99.90
7014;DHT22;3547;50.774;12.918;2023-02-01T17:34:30;0.40;99.90
7014;DHT22;3547;50.774;12.918;2023-02-01T17:36:56;0.40;99.90
7014;DHT22;3547;50.774;12.918;2023-02-01T17:39:22;0.40;99.90
7014;DHT22;3547;50.774;12.918;2023-02-01T17:42:11;0.40;99.90
7014;DHT22;3547;50.774;12.918;2023-02-01T17:44:37;0.50;99.90
7014;DHT22;3547;50.774;12.918;2023-02-01T17:47:03;0.50;99.90
7014;DHT22;3547;50.774;12.918;2023-02-01T17:49:29;0.50;99.90
7014;DHT22;3547;50.774;12.918;2023-02-01T17:51:58;0.50;99.90
7014;DHT22;3547;50.774;12.918;2023-02-01T17:54:25;0.50;54.60
7014;DHT22;3547;50.774;12.918;2023-02-01T17:56:51;0.60;54.70
7014;DHT22;3547;50.774;12.918;2023-02-01T17:59:17;0.60;13.60
7014;DHT22;3547;50.774;12.918;2023-02-01T18:01:44;0.60;1.00
7014;DHT22;3547;50.774;12.918;2023-02-01T18:04:15;0.60;99.90
7014;DHT22;3547;50.774;12.918;2023-02-01T18:06:43;0.60;1.00
7014;DHT22;3547;50.774;12.918;2023-02-01T18:09:10;0.60;99.90
7014;DHT22;3547;50.774;12.918;2023-02-01T18:11:36;0.60;99.90
7014;DHT22;3547;50.774;12.918;2023-02-01T18:14:02;0.70;99.90
7014;DHT22;3547;50.774;12.918;2023-02-01T18:16:30;0.70;1.00
7014;DHT22;3547;50.774;12.918;2023-02-01T18:18:57;0.70;99.90
7014;DHT22;3547;50.774;12.918;2023-02-01T18:21:31;0.70;99.90
7014;DHT22;3547;50.774;12.918;2023-02-01T18:24:00;0.70;99.90
7014;DHT22;3547;50.774;12.918;2023-02-01T18:26:26;0.70;1.00
7014;DHT22;3547;50.774;12.918;2023-02-01T18:28:52;0.80;1.00
7014;DHT22;3547;50.774;12.918;2023-02-01T18:31:25;0.80;1.00
7014;DHT22;3547;50.774;12.918;2023-02-01T18:33:53;0.90;1.00
7014;DHT22;3547;50.774;12.918;2023-02-01T18:36:19;0.90;99.90
7014;DHT22;3547;50.774;12.918;2023-02-01T18:38:49;0.90;37.20
7014;DHT22;3547;50.774;12.918;2023-02-01T18:41:18;0.90;1.00
7014;DHT22;3547;50.774;12.918;2023-02-01T18:43:49;0.90;13.70
7014;DHT22;3547;50.774;12.918;2023-02-01T18:46:16;0.90;99.90
7014;DHT22;3547;50.774;12.918;2023-02-01T18:48:42;0.90;99.90
7014;DHT22;3547;50.774;12.918;2023-02-01T18:51:10;0.90;1.00
7014;DHT22;3547;50.774;12.918;2023-02-01T18:53:37;1.00;1.00
7014;DHT22;3547;50.774;12.918;2023-02-01T18:56:04;0.90;1.00
7014;DHT22;3547;50.774;12.918;2023-02-01T18:58:31;1.00;1.00
7014;DHT22;3547;50.774;12.918;2023-02-01T19:01:04;1.00;99.90
7014;DHT22;3547;50.774;12.918;2023-02-01T19:03:31;1.00;12.90
7014;DHT22;3547;50.774;12.918;2023-02-01T19:05:57;1.00;99.90
7014;DHT22;3547;50.774;12.918;2023-02-01T19:08:24;1.10;54.80
7014;DHT22;3547;50.774;12.918;2023-02-01T19:10:51;1.00;1.00
7014;DHT22;3547;50.774;12.918;2023-02-01T19:13:17;1.10;99.90
7014;DHT22;3547;50.774;12.918;2023-02-01T19:15:48;1.10;1.00
7014;DHT22;3547;50.774;12.918;2023-02-01T19:18:14;1.10;14.80
7014;DHT22;3547;50.774;12.918;2023-02-01T19:20:46;1.10;1.00